sensor_id;sensor_type;location;lat;lon;timestamp;P1;durP1;ratioP1;P2;durP2;ratioP2
20462;SDS011;10390;53.566;9.980;2023-02-28T00:00:06;9.25;;;4.68;;
20462;SDS011;10390;53.566;9.980;2023-02-28T00:02:35;8.05;;;4.78;;
20462;SDS011;10390;53.566;9.980;2023-02-28T00:05:01;9.95;;;4.80;;
20462;SDS011;10390;53.566;9.980;2023-02-28T00:07:28;9.27;;;4.97;;
20462;SDS011;10390;53.566;9.980;2023-02-28T00:09:55;8.73;;;5.15;;
20462;SDS011;10390;53.566;9.980;2023-02-28T00:12:20;9.80;;;5.15;;
20462;SDS011;10390;53.566;9.980;2023-02-28T00:14:46;9.15;;;5.20;;
20462;SDS011;10390;53.566;9.980;2023-02-28T00:17:12;7.47;;;5.35;;
20462;SDS011;10390;53.566;9.980;2023-02-28T00:19:37;10.80;;;5.18;;
20462;SDS011;10390;53.566;9.980;2023-02-28T00:22:03;10.63;;;5.03;;
20462;SDS011;10390;53.566;9.980;2023-02-28T00:24:28;9.63;;;4.78;;
20462;SDS011;10390;53.566;9.980;2023-02-28T00:26:54;9.60;;;5.35;;
20462;SDS011;10390;53.566;9.980;2023-02-28T00:29:19;9.80;;;4.90;;
20462;SDS011;10390;53.566;9.980;2023-02-28T00:31:45;8.70;;;5.05;;
20462;SDS011;10390;53.566;9.980;2023-02-28T00:34:10;8.50;;;5.45;;
20462;SDS011;10390;53.566;9.980;2023-02-28T00:36:36;9.25;;;4.95;;
20462;SDS011;10390;53.566;9.980;2023-02-28T00:39:02;12.00;;;4.75;;
20462;SDS011;10390;53.566;9.980;2023-02-28T00:41:27;9.63;;;5.25;;
20462;SDS011;10390;53.566;9.980;2023-02-28T00:43:53;12.65;;;5.35;;
20462;SDS011;10390;53.566;9.980;2023-02-28T00:46:18;9.13;;;5.10;;
20462;SDS011;10390;53.566;9.980;2023-02-28T00:48:44;8.23;;;4.90;;
20462;SDS011;10390;53.566;9.980;2023-02-28T00:51:09;10.15;;;4.95;;
20462;SDS011;10390;53.566;9.980;2023-02-28T00:53:35;8.05;;;4.70;;
20462;SDS011;10390;53.566;9.980;2023-02-28T00:56:01;6.38;;;4.00;;
20462;SDS011;10390;53.566;9.980;2023-02-28T00:58:26;8.63;;;4.68;;
20462;SDS011;10390;53.566;9.980;2023-02-28T01:00:52;7.75;;;4.15;;
20462;SDS011;10390;53.566;9.980;2023-02-28T01:03:19;9.90;;;4.80;;
20462;SDS011;10390;53.566;9.980;2023-02-28T01:05:46;8.52;;;4.88;;
20462;SDS011;10390;53.566;9.980;2023-02-28T01:08:11;7.25;;;4.35;;
20462;SDS011;10390;53.566;9.980;2023-02-28T01:10:38;8.55;;;4.47;;
20462;SDS011;10390;53.566;9.980;2023-02-28T01:13:04;8.25;;;4.93;;
20462;SDS011;10390;53.566;9.980;2023-02-28T01:15:30;8.20;;;4.88;;
20462;SDS011;10390;53.566;9.980;2023-02-28T01:17:57;8.13;;;4.65;;
20462;SDS011;10390;53.566;9.980;2023-02-28T01:20:23;7.45;;;4.57;;
20462;SDS011;10390;53.566;9.980;2023-02-28T01:22:48;6.95;;;4.45;;
20462;SDS011;10390;53.566;9.980;2023-02-28T01:25:14;7.63;;;4.60;;
20462;SDS011;10390;53.566;9.980;2023-02-28T01:27:40;9.20;;;5.00;;
20462;SDS011;10390;53.566;9.980;2023-02-28T01:30:09;7.22;;;4.72;;
20462;SDS011;10390;53.566;9.980;2023-02-28T01:32:35;8.35;;;4.72;;
20462;SDS011;10390;53.566;9.980;2023-02-28T01:35:01;7.47;;;4.78;;
20462;SDS011;10390;53.566;9.980;2023-02-28T01:37:27;9.23;;;4.80;;
20462;SDS011;10390;53.566;9.980;2023-02-28T01:39:53;8.30;;;4.82;;
20462;SDS011;10390;53.566;9.980;2023-02-28T01:42:18;7.30;;;4.82;;
20462;SDS011;10390;53.566;9.980;2023-02-28T01:47:38;7.75;;;4.47;;
20462;SDS011;10390;53.566;9.980;2023-02-28T01:50:07;9.80;;;4.60;;
20462;SDS011;10390;53.566;9.980;2023-02-28T01:52:37;7.22;;;4.43;;
20462;SDS011;10390;53.566;9.980;2023-02-28T01:55:04;6.55;;;4.60;;
20462;SDS011;10390;53.566;9.980;2023-02-28T01:57:35;8.27;;;5.60;;
20462;SDS011;10390;53.566;9.980;2023-02-28T02:00:07;7.40;;;4.88;;
20462;SDS011;10390;53.566;9.980;2023-02-28T02:02:42;8.30;;;4.78;;
20462;SDS011;10390;53.566;9.980;2023-02-28T02:05:12;7.28;;;4.78;;
20462;SDS011;10390;53.566;9.980;2023-02-28T02:07:41;8.75;;;5.53;;
20462;SDS011;10390;53.566;9.980;2023-02-28T02:10:14;7.72;;;4.93;;
20462;SDS011;10390;53.566;9.980;2023-02-28T02:15:28;6.40;;;4.50;;
20462;SDS011;10390;53.566;9.980;2023-02-28T02:18:04;8.48;;;4.60;;
20462;SDS011;10390;53.566;9.980;2023-02-28T02:26:34;7.65;;;4.95;;
20462;SDS011;10390;53.566;9.980;2023-02-28T02:32:25;6.70;;;4.57;;
20462;SDS011;10390;53.566;9.980;2023-02-28T02:34:56;8.00;;;5.15;;
20462;SDS011;10390;53.566;9.980;2023-02-28T02:37:29;7.22;;;4.50;;
20462;SDS011;10390;53.566;9.980;2023-02-28T02:40:17;6.35;;;4.90;;
20462;SDS011;10390;53.566;9.980;2023-02-28T02:43:21;6.80;;;4.82;;
20462;SDS011;10390;53.566;9.980;2023-02-28T02:46:01;6.78;;;4.80;;
20462;SDS011;10390;53.566;9.980;2023-02-28T02:48:27;8.75;;;5.50;;
20462;SDS011;10390;53.566;9.980;2023-02-28T02:50:57;7.05;;;5.07;;
20462;SDS011;10390;53.566;9.980;2023-02-28T02:53:36;10.63;;;6.03;;
20462;SDS011;10390;53.566;9.980;2023-02-28T02:56:05;8.60;;;5.60;;
20462;SDS011;10390;53.566;9.980;2023-02-28T02:58:34;7.60;;;4.95;;
20462;SDS011;10390;53.566;9.980;2023-02-28T03:01:07;8.02;;;5.55;;
20462;SDS011;10390;53.566;9.980;2023-02-28T03:03:35;7.93;;;5.07;;
20462;SDS011;10390;53.566;9.980;2023-02-28T03:06:01;7.65;;;5.65;;
20462;SDS011;10390;53.566;9.980;2023-02-28T03:08:29;7.75;;;5.20;;
20462;SDS011;10390;53.566;9.980;2023-02-28T03:10:59;8.35;;;5.60;;
20462;SDS011;10390;53.566;9.980;2023-02-28T03:13:34;8.00;;;5.20;;
20462;SDS011;10390;53.566;9.980;2023-02-28T03:16:13;10.38;;;5.70;;
20462;SDS011;10390;53.566;9.980;2023-02-28T03:19:06;8.15;;;5.65;;
20462;SDS011;10390;53.566;9.980;2023-02-28T03:27:24;8.10;;;5.35;;
20462;SDS011;10390;53.566;9.980;2023-02-28T03:32:54;7.22;;;5.45;;
20462;SDS011;10390;53.566;9.980;2023-02-28T03:35:26;7.28;;;5.45;;
20462;SDS011;10390;53.566;9.980;2023-02-28T03:38:00;8.35;;;5.38;;
20462;SDS011;10390;53.566;9.980;2023-02-28T03:40:42;7.68;;;4.93;;
20462;SDS011;10390;53.566;9.980;2023-02-28T03:43:13;8.43;;;5.20;;
20462;SDS011;10390;53.566;9.980;2023-02-28T03:45:43;8.00;;;4.93;;
20462;SDS011;10390;53.566;9.980;2023-02-28T03:50:53;7.82;;;5.35;;
20462;SDS011;10390;53.566;9.980;2023-02-28T03:55:59;8.32;;;5.60;;
20462;SDS011;10390;53.566;9.980;2023-02-28T04:01:53;7.70;;;5.10;;
20462;SDS011;10390;53.566;9.980;2023-02-28T04:04:20;7.97;;;5.25;;
20462;SDS011;10390;53.566;9.980;2023-02-28T04:06:47;7.53;;;5.05;;
20462;SDS011;10390;53.566;9.980;2023-02-28T04:09:18;8.38;;;6.00;;
20462;SDS011;10390;53.566;9.980;2023-02-28T04:11:50;8.13;;;5.35;;
20462;SDS011;10390;53.566;9.980;2023-02-28T04:14:17;7.72;;;5.35;;
20462;SDS011;10390;53.566;9.980;2023-02-28T04:16:42;8.40;;;5.50;;
20462;SDS011;10390;53.566;9.980;2023-02-28T04:19:09;7.28;;;5.68;;
20462;SDS011;10390;53.566;9.980;2023-02-28T04:21:36;8.70;;;5.78;;
20462;SDS011;10390;53.566;9.980;2023-02-28T04:24:08;7.60;;;5.35;;
20462;SDS011;10390;53.566;9.980;2023-02-28T04:26:39;8.85;;;5.38;;
20462;SDS011;10390;53.566;9.980;2023-02-28T04:29:06;8.88;;;6.13;;
20462;SDS011;10390;53.566;9.980;2023-02-28T04:31:32;8.15;;;5.30;;
20462;SDS011;10390;53.566;9.980;2023-02-28T04:33:58;8.63;;;5.28;;
20462;SDS011;10390;53.566;9.980;2023-02-28T04:36:25;7.65;;;5.75;;
20462;SDS011;10390;53.566;9.980;2023-02-28T04:38:50;9.68;;;5.68;;
20462;SDS011;10390;53.566;9.980;2023-02-28T04:41:17;8.32;;;5.82;;
20462;SDS011;10390;53.566;9.980;2023-02-28T04:43:43;8.88;;;5.72;;
20462;SDS011;10390;53.566;9.980;2023-02-28T04:46:08;8.23;;;5.47;;
20462;SDS011;10390;53.566;9.980;2023-02-28T04:48:36;7.90;;;5.35;;
20462;SDS011;10390;53.566;9.980;2023-02-28T04:51:07;7.03;;;5.28;;
20462;SDS011;10390;53.566;9.980;2023-02-28T04:53:37;7.57;;;4.82;;
20462;SDS011;10390;53.566;9.980;2023-02-28T04:56:04;8.88;;;5.60;;
20462;SDS011;10390;53.566;9.980;2023-02-28T04:58:31;7.30;;;5.18;;
20462;SDS011;10390;53.566;9.980;2023-02-28T05:01:04;6.85;;;4.85;;
20462;SDS011;10390;53.566;9.980;2023-02-28T05:03:50;7.82;;;5.40;;
20462;SDS011;10390;53.566;9.980;2023-02-28T05:06:17;7.32;;;5.70;;
20462;SDS011;10390;53.566;9.980;2023-02-28T05:08:44;7.60;;;5.00;;
20462;SDS011;10390;53.566;9.980;2023-02-28T05:11:14;7.28;;;5.00;;
20462;SDS011;10390;53.566;9.980;2023-02-28T05:13:42;8.48;;;5.40;;
20462;SDS011;10390;53.566;9.980;2023-02-28T05:16:08;8.35;;;5.60;;
20462;SDS011;10390;53.566;9.980;2023-02-28T05:18:34;8.65;;;5.30;;
20462;SDS011;10390;53.566;9.980;2023-02-28T05:20:59;7.43;;;5.35;;
20462;SDS011;10390;53.566;9.980;2023-02-28T05:23:27;8.25;;;5.40;;
20462;SDS011;10390;53.566;9.980;2023-02-28T05:25:53;8.50;;;5.72;;
20462;SDS011;10390;53.566;9.980;2023-02-28T05:28:19;7.35;;;5.47;;
20462;SDS011;10390;53.566;9.980;2023-02-28T05:30:45;8.00;;;5.20;;
20462;SDS011;10390;53.566;9.980;2023-02-28T05:33:11;9.68;;;5.75;;
20462;SDS011;10390;53.566;9.980;2023-02-28T05:35:38;7.72;;;5.45;;
20462;SDS011;10390;53.566;9.980;2023-02-28T05:38:04;8.00;;;5.70;;
20462;SDS011;10390;53.566;9.980;2023-02-28T05:40:30;8.98;;;5.97;;
20462;SDS011;10390;53.566;9.980;2023-02-28T05:42:56;8.85;;;5.70;;
20462;SDS011;10390;53.566;9.980;2023-02-28T05:45:21;9.85;;;6.18;;
20462;SDS011;10390;53.566;9.980;2023-02-28T05:47:47;8.10;;;5.40;;
20462;SDS011;10390;53.566;9.980;2023-02-28T05:50:12;7.93;;;5.72;;
20462;SDS011;10390;53.566;9.980;2023-02-28T05:52:38;7.78;;;5.45;;
20462;SDS011;10390;53.566;9.980;2023-02-28T05:55:04;7.65;;;5.38;;
20462;SDS011;10390;53.566;9.980;2023-02-28T05:57:29;8.38;;;5.57;;
20462;SDS011;10390;53.566;9.980;2023-02-28T05:59:55;6.78;;;4.72;;
20462;SDS011;10390;53.566;9.980;2023-02-28T06:02:21;6.80;;;4.68;;
20462;SDS011;10390;53.566;9.980;2023-02-28T06:04:46;7.68;;;5.38;;
20462;SDS011;10390;53.566;9.980;2023-02-28T06:07:12;8.68;;;4.95;;
20462;SDS011;10390;53.566;9.980;2023-02-28T06:09:38;7.88;;;5.00;;
20462;SDS011;10390;53.566;9.980;2023-02-28T06:12:04;7.35;;;4.65;;
20462;SDS011;10390;53.566;9.980;2023-02-28T06:14:33;7.60;;;5.00;;
20462;SDS011;10390;53.566;9.980;2023-02-28T06:16:59;7.63;;;5.38;;
20462;SDS011;10390;53.566;9.980;2023-02-28T06:19:26;7.10;;;5.05;;
20462;SDS011;10390;53.566;9.980;2023-02-28T06:21:52;7.95;;;5.13;;
20462;SDS011;10390;53.566;9.980;2023-02-28T06:24:19;11.43;;;5.47;;
20462;SDS011;10390;53.566;9.980;2023-02-28T06:26:45;7.80;;;5.03;;
20462;SDS011;10390;53.566;9.980;2023-02-28T06:29:11;8.75;;;5.07;;
20462;SDS011;10390;53.566;9.980;2023-02-28T06:31:36;10.07;;;5.30;;
20462;SDS011;10390;53.566;9.980;2023-02-28T06:34:03;9.88;;;5.68;;
20462;SDS011;10390;53.566;9.980;2023-02-28T06:36:29;12.55;;;5.60;;
20462;SDS011;10390;53.566;9.980;2023-02-28T06:38:55;11.35;;;5.75;;
20462;SDS011;10390;53.566;9.980;2023-02-28T06:41:22;9.43;;;5.15;;
20462;SDS011;10390;53.566;9.980;2023-02-28T06:43:48;10.10;;;5.57;;
20462;SDS011;10390;53.566;9.980;2023-02-28T06:46:14;9.70;;;5.20;;
20462;SDS011;10390;53.566;9.980;2023-02-28T06:48:40;16.35;;;6.05;;
20462;SDS011;10390;53.566;9.980;2023-02-28T06:51:10;18.38;;;7.10;;
20462;SDS011;10390;53.566;9.980;2023-02-28T06:53:41;18.38;;;6.32;;
20462;SDS011;10390;53.566;9.980;2023-02-28T06:56:08;20.73;;;6.85;;
20462;SDS011;10390;53.566;9.980;2023-02-28T06:58:36;12.10;;;6.50;;
20462;SDS011;10390;53.566;9.980;2023-02-28T07:01:03;14.30;;;6.38;;
20462;SDS011;10390;53.566;9.980;2023-02-28T07:03:29;21.05;;;7.07;;
20462;SDS011;10390;53.566;9.980;2023-02-28T07:05:55;16.83;;;7.68;;
20462;SDS011;10390;53.566;9.980;2023-02-28T07:08:21;16.23;;;7.05;;
20462;SDS011;10390;53.566;9.980;2023-02-28T07:10:51;18.42;;;6.70;;
20462;SDS011;10390;53.566;9.980;2023-02-28T07:13:18;14.40;;;7.13;;
20462;SDS011;10390;53.566;9.980;2023-02-28T07:15:43;12.82;;;6.43;;
20462;SDS011;10390;53.566;9.980;2023-02-28T07:18:09;11.65;;;6.05;;
20462;SDS011;10390;53.566;9.980;2023-02-28T07:20:35;12.70;;;5.70;;
20462;SDS011;10390;53.566;9.980;2023-02-28T07:23:00;14.63;;;6.50;;
20462;SDS011;10390;53.566;9.980;2023-02-28T07:25:26;13.70;;;6.78;;
20462;SDS011;10390;53.566;9.980;2023-02-28T07:27:53;12.23;;;5.45;;
20462;SDS011;10390;53.566;9.980;2023-02-28T07:30:20;12.27;;;6.18;;
20462;SDS011;10390;53.566;9.980;2023-02-28T07:32:46;10.57;;;5.88;;
20462;SDS011;10390;53.566;9.980;2023-02-28T07:35:12;12.32;;;5.90;;
20462;SDS011;10390;53.566;9.980;2023-02-28T07:37:40;13.43;;;6.00;;
20462;SDS011;10390;53.566;9.980;2023-02-28T07:40:07;11.50;;;5.68;;
20462;SDS011;10390;53.566;9.980;2023-02-28T07:42:39;10.85;;;6.18;;
20462;SDS011;10390;53.566;9.980;2023-02-28T07:45:05;13.40;;;6.20;;
20462;SDS011;10390;53.566;9.980;2023-02-28T07:47:32;12.05;;;6.20;;
20462;SDS011;10390;53.566;9.980;2023-02-28T07:49:58;12.00;;;5.80;;
20462;SDS011;10390;53.566;9.980;2023-02-28T07:52:23;10.38;;;4.95;;
20462;SDS011;10390;53.566;9.980;2023-02-28T07:54:50;16.50;;;5.95;;
20462;SDS011;10390;53.566;9.980;2023-02-28T07:57:15;10.95;;;5.50;;
20462;SDS011;10390;53.566;9.980;2023-02-28T07:59:41;12.52;;;6.05;;
20462;SDS011;10390;53.566;9.980;2023-02-28T08:02:10;11.57;;;5.93;;
20462;SDS011;10390;53.566;9.980;2023-02-28T08:04:43;10.32;;;6.13;;
20462;SDS011;10390;53.566;9.980;2023-02-28T08:07:09;12.10;;;5.68;;
20462;SDS011;10390;53.566;9.980;2023-02-28T08:09:38;13.82;;;5.78;;
20462;SDS011;10390;53.566;9.980;2023-02-28T08:12:04;13.70;;;6.10;;
20462;SDS011;10390;53.566;9.980;2023-02-28T08:14:30;11.15;;;5.45;;
20462;SDS011;10390;53.566;9.980;2023-02-28T08:16:56;13.38;;;6.13;;
20462;SDS011;10390;53.566;9.980;2023-02-28T08:19:21;14.35;;;6.03;;
20462;SDS011;10390;53.566;9.980;2023-02-28T08:21:47;9.65;;;5.30;;
20462;SDS011;10390;53.566;9.980;2023-02-28T08:24:12;9.48;;;5.50;;
20462;SDS011;10390;53.566;9.980;2023-02-28T08:26:38;10.68;;;5.32;;
20462;SDS011;10390;53.566;9.980;2023-02-28T08:29:04;9.55;;;4.95;;
20462;SDS011;10390;53.566;9.980;2023-02-28T08:31:29;12.38;;;5.70;;
20462;SDS011;10390;53.566;9.980;2023-02-28T08:33:55;11.50;;;5.13;;
20462;SDS011;10390;53.566;9.980;2023-02-28T08:36:25;8.98;;;4.93;;
20462;SDS011;10390;53.566;9.980;2023-02-28T08:38:53;8.63;;;5.20;;
20462;SDS011;10390;53.566;9.980;2023-02-28T08:41:18;9.43;;;4.97;;
20462;SDS011;10390;53.566;9.980;2023-02-28T08:43:44;10.73;;;5.43;;
20462;SDS011;10390;53.566;9.980;2023-02-28T08:46:11;10.02;;;5.72;;
20462;SDS011;10390;53.566;9.980;2023-02-28T08:48:37;11.23;;;5.38;;
20462;SDS011;10390;53.566;9.980;2023-02-28T08:51:04;10.27;;;5.32;;
20462;SDS011;10390;53.566;9.980;2023-02-28T08:53:35;7.70;;;5.10;;
20462;SDS011;10390;53.566;9.980;2023-02-28T08:56:06;8.88;;;5.18;;
20462;SDS011;10390;53.566;9.980;2023-02-28T08:58:36;8.50;;;5.25;;
20462;SDS011;10390;53.566;9.980;2023-02-28T09:01:18;6.97;;;4.95;;
20462;SDS011;10390;53.566;9.980;2023-02-28T09:03:47;10.50;;;4.75;;
20462;SDS011;10390;53.566;9.980;2023-02-28T09:06:14;8.98;;;5.13;;
20462;SDS011;10390;53.566;9.980;2023-02-28T09:08:40;8.55;;;5.32;;
20462;SDS011;10390;53.566;9.980;2023-02-28T09:11:06;7.68;;;5.07;;
20462;SDS011;10390;53.566;9.980;2023-02-28T09:13:32;8.15;;;5.60;;
20462;SDS011;10390;53.566;9.980;2023-02-28T09:15:59;8.60;;;5.18;;
20462;SDS011;10390;53.566;9.980;2023-02-28T09:18:26;8.77;;;5.07;;
20462;SDS011;10390;53.566;9.980;2023-02-28T09:20:52;8.95;;;5.22;;
20462;SDS011;10390;53.566;9.980;2023-02-28T09:23:18;6.95;;;4.82;;
20462;SDS011;10390;53.566;9.980;2023-02-28T09:25:50;8.73;;;5.07;;
20462;SDS011;10390;53.566;9.980;2023-02-28T09:28:18;10.52;;;5.00;;
20462;SDS011;10390;53.566;9.980;2023-02-28T09:30:45;7.78;;;4.75;;
20462;SDS011;10390;53.566;9.980;2023-02-28T09:33:12;8.60;;;5.05;;
20462;SDS011;10390;53.566;9.980;2023-02-28T09:35:39;7.85;;;4.60;;
20462;SDS011;10390;53.566;9.980;2023-02-28T09:38:04;10.57;;;5.28;;
20462;SDS011;10390;53.566;9.980;2023-02-28T09:40:34;8.05;;;5.05;;
20462;SDS011;10390;53.566;9.980;2023-02-28T09:43:09;10.70;;;5.43;;
20462;SDS011;10390;53.566;9.980;2023-02-28T09:45:39;11.13;;;5.93;;
20462;SDS011;10390;53.566;9.980;2023-02-28T09:48:12;12.75;;;4.80;;
20462;SDS011;10390;53.566;9.980;2023-02-28T09:50:46;9.90;;;5.15;;
20462;SDS011;10390;53.566;9.980;2023-02-28T09:55:53;11.60;;;5.75;;
20462;SDS011;10390;53.566;9.980;2023-02-28T10:01:03;10.60;;;5.53;;
20462;SDS011;10390;53.566;9.980;2023-02-28T10:03:40;8.57;;;5.32;;
20462;SDS011;10390;53.566;9.980;2023-02-28T10:06:22;9.85;;;5.68;;
20462;SDS011;10390;53.566;9.980;2023-02-28T10:11:28;12.32;;;5.47;;
20462;SDS011;10390;53.566;9.980;2023-02-28T10:14:14;10.40;;;5.40;;
20462;SDS011;10390;53.566;9.980;2023-02-28T10:21:57;9.85;;;4.95;;
20462;SDS011;10390;53.566;9.980;2023-02-28T10:24:33;9.90;;;5.20;;
20462;SDS011;10390;53.566;9.980;2023-02-28T10:27:16;8.88;;;5.10;;
20462;SDS011;10390;53.566;9.980;2023-02-28T10:29:43;11.15;;;5.25;;
20462;SDS011;10390;53.566;9.980;2023-02-28T10:32:18;10.27;;;4.82;;
20462;SDS011;10390;53.566;9.980;2023-02-28T10:37:31;9.20;;;4.97;;
20462;SDS011;10390;53.566;9.980;2023-02-28T10:40:03;6.97;;;4.40;;
20462;SDS011;10390;53.566;9.980;2023-02-28T10:42:30;9.90;;;4.60;;
20462;SDS011;10390;53.566;9.980;2023-02-28T10:45:15;8.25;;;4.85;;
20462;SDS011;10390;53.566;9.980;2023-02-28T10:47:49;8.20;;;5.03;;
20462;SDS011;10390;53.566;9.980;2023-02-28T10:50:35;8.93;;;5.25;;
20462;SDS011;10390;53.566;9.980;2023-02-28T10:55:35;7.68;;;4.50;;
20462;SDS011;10390;53.566;9.980;2023-02-28T10:58:01;8.30;;;5.40;;
20462;SDS011;10390;53.566;9.980;2023-02-28T11:00:31;11.00;;;5.03;;
20462;SDS011;10390;53.566;9.980;2023-02-28T11:02:59;7.82;;;5.05;;
20462;SDS011;10390;53.566;9.980;2023-02-28T11:07:51;12.73;;;5.35;;
20462;SDS011;10390;53.566;9.980;2023-02-28T11:10:19;7.10;;;4.55;;
20462;SDS011;10390;53.566;9.980;2023-02-28T11:12:46;6.07;;;4.13;;
20462;SDS011;10390;53.566;9.980;2023-02-28T11:15:29;7.22;;;4.40;;
20462;SDS011;10390;53.566;9.980;2023-02-28T11:18:15;8.85;;;4.78;;
20462;SDS011;10390;53.566;9.980;2023-02-28T11:20:46;10.75;;;4.90;;
20462;SDS011;10390;53.566;9.980;2023-02-28T11:23:14;8.70;;;4.45;;
20462;SDS011;10390;53.566;9.980;2023-02-28T11:25:45;9.05;;;4.65;;
20462;SDS011;10390;53.566;9.980;2023-02-28T11:28:30;8.00;;;5.00;;
20462;SDS011;10390;53.566;9.980;2023-02-28T11:31:01;8.13;;;4.68;;
20462;SDS011;10390;53.566;9.980;2023-02-28T11:33:47;8.13;;;5.15;;
20462;SDS011;10390;53.566;9.980;2023-02-28T11:36:21;6.75;;;4.53;;
20462;SDS011;10390;53.566;9.980;2023-02-28T11:38:52;7.93;;;4.35;;
20462;SDS011;10390;53.566;9.980;2023-02-28T11:52:17;7.53;;;4.38;;
20462;SDS011;10390;53.566;9.980;2023-02-28T12:03:39;6.75;;;4.70;;
20462;SDS011;10390;53.566;9.980;2023-02-28T12:12:21;6.68;;;4.78;;
20462;SDS011;10390;53.566;9.980;2023-02-28T12:20:34;7.50;;;4.45;;
20462;SDS011;10390;53.566;9.980;2023-02-28T12:23:17;7.78;;;4.47;;
20462;SDS011;10390;53.566;9.980;2023-02-28T12:26:10;7.18;;;4.60;;
20462;SDS011;10390;53.566;9.980;2023-02-28T12:28:59;6.88;;;4.88;;
20462;SDS011;10390;53.566;9.980;2023-02-28T12:31:45;5.63;;;4.20;;
20462;SDS011;10390;53.566;9.980;2023-02-28T12:37:12;7.55;;;4.40;;
20462;SDS011;10390;53.566;9.980;2023-02-28T12:39:46;6.25;;;4.68;;
20462;SDS011;10390;53.566;9.980;2023-02-28T12:42:19;6.15;;;4.22;;
20462;SDS011;10390;53.566;9.980;2023-02-28T12:44:59;7.35;;;4.70;;
20462;SDS011;10390;53.566;9.980;2023-02-28T12:47:28;7.55;;;4.25;;
20462;SDS011;10390;53.566;9.980;2023-02-28T12:52:55;7.82;;;4.30;;
20462;SDS011;10390;53.566;9.980;2023-02-28T12:58:36;6.78;;;4.70;;
20462;SDS011;10390;53.566;9.980;2023-02-28T13:09:51;6.45;;;4.40;;
20462;SDS011;10390;53.566;9.980;2023-02-28T13:12:21;6.90;;;4.70;;
20462;SDS011;10390;53.566;9.980;2023-02-28T13:14:48;7.60;;;4.35;;
20462;SDS011;10390;53.566;9.980;2023-02-28T13:17:20;6.07;;;4.38;;
20462;SDS011;10390;53.566;9.980;2023-02-28T13:22:18;6.53;;;4.45;;
20462;SDS011;10390;53.566;9.980;2023-02-28T13:25:01;7.00;;;3.90;;
20462;SDS011;10390;53.566;9.980;2023-02-28T13:27:37;6.68;;;4.18;;
20462;SDS011;10390;53.566;9.980;2023-02-28T13:30:59;5.78;;;4.22;;
20462;SDS011;10390;53.566;9.980;2023-02-28T13:36:00;6.38;;;4.10;;
20462;SDS011;10390;53.566;9.980;2023-02-28T13:38:35;8.07;;;4.38;;
20462;SDS011;10390;53.566;9.980;2023-02-28T13:44:06;7.18;;;4.10;;
20462;SDS011;10390;53.566;9.980;2023-02-28T13:51:48;6.18;;;4.25;;
20462;SDS011;10390;53.566;9.980;2023-02-28T13:54:22;5.32;;;4.20;;
20462;SDS011;10390;53.566;9.980;2023-02-28T14:00:28;5.53;;;4.13;;
20462;SDS011;10390;53.566;9.980;2023-02-28T14:06:30;7.30;;;4.38;;
20462;SDS011;10390;53.566;9.980;2023-02-28T14:09:06;6.65;;;4.25;;
20462;SDS011;10390;53.566;9.980;2023-02-28T14:11:48;5.30;;;3.75;;
20462;SDS011;10390;53.566;9.980;2023-02-28T14:16:58;5.95;;;3.92;;
20462;SDS011;10390;53.566;9.980;2023-02-28T14:19:25;6.95;;;4.68;;
20462;SDS011;10390;53.566;9.980;2023-02-28T14:27:49;6.38;;;3.97;;
20462;SDS011;10390;53.566;9.980;2023-02-28T14:36:44;7.03;;;3.88;;
20462;SDS011;10390;53.566;9.980;2023-02-28T14:39:14;11.85;;;4.50;;
20462;SDS011;10390;53.566;9.980;2023-02-28T14:41:42;9.88;;;4.95;;
20462;SDS011;10390;53.566;9.980;2023-02-28T14:44:27;12.93;;;5.00;;
20462;SDS011;10390;53.566;9.980;2023-02-28T14:46:53;10.25;;;4.35;;
20462;SDS011;10390;53.566;9.980;2023-02-28T14:49:23;14.00;;;5.07;;
20462;SDS011;10390;53.566;9.980;2023-02-28T14:51:50;22.55;;;5.75;;
20462;SDS011;10390;53.566;9.980;2023-02-28T14:54:46;16.35;;;5.40;;
20462;SDS011;10390;53.566;9.980;2023-02-28T14:57:31;25.55;;;6.47;;
20462;SDS011;10390;53.566;9.980;2023-02-28T15:02:39;24.10;;;7.20;;
20462;SDS011;10390;53.566;9.980;2023-02-28T15:07:34;15.38;;;6.10;;
20462;SDS011;10390;53.566;9.980;2023-02-28T15:10:07;18.55;;;6.15;;
20462;SDS011;10390;53.566;9.980;2023-02-28T15:12:41;15.50;;;5.80;;
20462;SDS011;10390;53.566;9.980;2023-02-28T15:15:17;14.10;;;5.57;;
20462;SDS011;10390;53.566;9.980;2023-02-28T15:17:44;14.15;;;5.85;;
20462;SDS011;10390;53.566;9.980;2023-02-28T15:20:13;16.60;;;5.38;;
20462;SDS011;10390;53.566;9.980;2023-02-28T15:22:40;16.67;;;5.57;;
20462;SDS011;10390;53.566;9.980;2023-02-28T15:25:06;14.10;;;5.32;;
20462;SDS011;10390;53.566;9.980;2023-02-28T15:27:35;12.23;;;5.28;;
20462;SDS011;10390;53.566;9.980;2023-02-28T15:30:08;14.35;;;5.90;;
20462;SDS011;10390;53.566;9.980;2023-02-28T15:32:41;9.90;;;5.00;;
20462;SDS011;10390;53.566;9.980;2023-02-28T15:35:18;12.43;;;5.55;;
20462;SDS011;10390;53.566;9.980;2023-02-28T15:40:28;12.68;;;4.90;;
20462;SDS011;10390;53.566;9.980;2023-02-28T15:43:15;15.98;;;6.20;;
20462;SDS011;10390;53.566;9.980;2023-02-28T15:45:52;11.18;;;5.03;;
20462;SDS011;10390;53.566;9.980;2023-02-28T15:48:24;14.48;;;5.15;;
20462;SDS011;10390;53.566;9.980;2023-02-28T15:51:05;9.95;;;4.90;;
20462;SDS011;10390;53.566;9.980;2023-02-28T15:53:33;8.25;;;4.15;;
20462;SDS011;10390;53.566;9.980;2023-02-28T15:56:04;12.05;;;4.45;;
20462;SDS011;10390;53.566;9.980;2023-02-28T15:58:37;13.88;;;5.55;;
20462;SDS011;10390;53.566;9.980;2023-02-28T16:01:08;15.50;;;5.40;;
20462;SDS011;10390;53.566;9.980;2023-02-28T16:03:45;12.88;;;5.07;;
20462;SDS011;10390;53.566;9.980;2023-02-28T16:08:55;13.90;;;5.45;;
20462;SDS011;10390;53.566;9.980;2023-02-28T16:11:21;15.05;;;5.30;;
20462;SDS011;10390;53.566;9.980;2023-02-28T16:13:47;19.70;;;5.80;;
20462;SDS011;10390;53.566;9.980;2023-02-28T16:16:15;17.55;;;5.70;;
20462;SDS011;10390;53.566;9.980;2023-02-28T16:18:45;14.30;;;5.43;;
20462;SDS011;10390;53.566;9.980;2023-02-28T16:21:11;16.58;;;5.53;;
20462;SDS011;10390;53.566;9.980;2023-02-28T16:23:37;18.88;;;5.85;;
20462;SDS011;10390;53.566;9.980;2023-02-28T16:26:02;12.50;;;5.28;;
20462;SDS011;10390;53.566;9.980;2023-02-28T16:28:32;17.55;;;6.03;;
20462;SDS011;10390;53.566;9.980;2023-02-28T16:31:01;18.70;;;5.78;;
20462;SDS011;10390;53.566;9.980;2023-02-28T16:33:29;18.83;;;5.72;;
20462;SDS011;10390;53.566;9.980;2023-02-28T16:35:55;20.42;;;6.18;;
20462;SDS011;10390;53.566;9.980;2023-02-28T16:38:21;18.60;;;5.85;;
20462;SDS011;10390;53.566;9.980;2023-02-28T16:40:48;15.43;;;6.00;;
20462;SDS011;10390;53.566;9.980;2023-02-28T16:43:16;24.50;;;6.18;;
20462;SDS011;10390;53.566;9.980;2023-02-28T16:45:46;28.73;;;6.13;;
20462;SDS011;10390;53.566;9.980;2023-02-28T16:48:13;14.63;;;5.53;;
20462;SDS011;10390;53.566;9.980;2023-02-28T16:50:40;18.58;;;5.30;;
20462;SDS011;10390;53.566;9.980;2023-02-28T16:53:07;19.95;;;5.82;;
20462;SDS011;10390;53.566;9.980;2023-02-28T16:55:33;18.55;;;5.43;;
20462;SDS011;10390;53.566;9.980;2023-02-28T16:58:01;15.55;;;5.50;;
20462;SDS011;10390;53.566;9.980;2023-02-28T17:00:28;17.40;;;5.35;;
20462;SDS011;10390;53.566;9.980;2023-02-28T17:02:55;19.15;;;5.25;;
20462;SDS011;10390;53.566;9.980;2023-02-28T17:05:21;16.02;;;5.00;;
20462;SDS011;10390;53.566;9.980;2023-02-28T17:07:47;16.67;;;5.07;;
20462;SDS011;10390;53.566;9.980;2023-02-28T17:10:15;12.70;;;5.38;;
20462;SDS011;10390;53.566;9.980;2023-02-28T17:12:41;11.55;;;4.85;;
20462;SDS011;10390;53.566;9.980;2023-02-28T17:15:07;17.17;;;5.00;;
20462;SDS011;10390;53.566;9.980;2023-02-28T17:17:34;18.33;;;5.05;;
20462;SDS011;10390;53.566;9.980;2023-02-28T17:20:01;39.30;;;7.22;;
20462;SDS011;10390;53.566;9.980;2023-02-28T17:22:27;19.13;;;6.07;;
20462;SDS011;10390;53.566;9.980;2023-02-28T17:24:53;27.13;;;5.80;;